sensor_id;sensor_type;location;lat;lon;timestamp;pressure;altitude;pressure_sealevel;temperature;humidity
35331;BME280;21441;52.190;20.910;2022-11-15T00:02:24;100570.03;;;5.01;100.00
35331;BME280;21441;52.190;20.910;2022-11-15T00:04:52;100557.31;;;4.94;100.00
35331;BME280;21441;52.190;20.910;2022-11-15T00:07:19;100558.63;;;4.89;100.00
35331;BME280;21441;52.190;20.910;2022-11-15T00:09:46;100558.53;;;4.90;100.00
35331;BME280;21441;52.190;20.910;2022-11-15T00:12:13;100556.97;;;4.88;100.00
35331;BME280;21441;52.190;20.910;2022-11-15T00:14:40;100550.25;;;4.84;100.00
35331;BME280;21441;52.190;20.910;2022-11-15T00:17:07;100553.47;;;4.87;100.00
35331;BME280;21441;52.190;20.910;2022-11-15T00:19:34;100550.31;;;4.93;100.00
35331;BME280;21441;52.190;20.910;2022-11-15T00:22:03;100548.78;;;4.91;100.00
35331;BME280;21441;52.190;20.910;2022-11-15T00:24:30;100546.78;;;4.83;100.00
35331;BME280;21441;52.190;20.910;2022-11-15T00:26:57;100540.41;;;4.86;100.00
35331;BME280;21441;52.190;20.910;2022-11-15T00:29:24;100529.94;;;4.84;100.00
35331;BME280;21441;52.190;20.910;2022-11-15T00:31:52;100537.28;;;4.81;100.00
35331;BME280;21441;52.190;20.910;2022-11-15T00:34:19;100531.88;;;4.82;100.00
35331;BME280;21441;52.190;20.910;2022-11-15T00:36:46;100514.19;;;4.83;100.00
35331;BME280;21441;52.190;20.910;2022-11-15T00:39:14;100522.72;;;4.86;100.00
35331;BME280;21441;52.190;20.910;2022-11-15T00:41:42;100518.88;;;4.90;100.00
35331;BME280;21441;52.190;20.910;2022-11-15T00:44:08;100517.16;;;4.89;100.00
35331;BME280;21441;52.190;20.910;2022-11-15T00:46:36;100511.56;;;4.83;100.00
35331;BME280;21441;52.190;20.910;2022-11-15T00:49:02;100505.88;;;4.87;100.00
35331;BME280;21441;52.190;20.910;2022-11-15T00:51:30;100498.09;;;4.86;100.00
35331;BME280;21441;52.190;20.910;2022-11-15T00:53:57;100500.97;;;4.83;100.00
35331;BME280;21441;52.190;20.910;2022-11-15T00:56:25;100497.06;;;4.77;100.00
35331;BME280;21441;52.190;20.910;2022-11-15T00:58:52;100484.56;;;4.79;100.00
35331;BME280;21441;52.190;20.910;2022-11-15T01:01:21;100488.31;;;4.77;100.00
35331;BME280;21441;52.190;20.910;2022-11-15T01:03:48;100485.97;;;4.83;100.00
35331;BME280;21441;52.190;20.910;2022-11-15T01:06:15;100476.34;;;4.82;100.00
35331;BME280;21441;52.190;20.910;2022-11-15T01:08:42;100477.06;;;4.84;100.00
35331;BME280;21441;52.190;20.910;2022-11-15T01:11:11;100466.09;;;4.89;100.00
35331;BME280;21441;52.190;20.910;2022-11-15T01:13:40;100456.75;;;4.85;100.00
35331;BME280;21441;52.190;20.910;2022-11-15T01:16:09;100466.94;;;4.68;100.00
35331;BME280;21441;52.190;20.910;2022-11-15T01:18:36;100454.56;;;4.69;100.00
35331;BME280;21441;52.190;20.910;2022-11-15T01:21:08;100450.31;;;4.78;100.00
35331;BME280;21441;52.190;20.910;2022-11-15T01:23:36;100438.41;;;4.83;100.00
35331;BME280;21441;52.190;20.910;2022-11-15T01:26:05;100450.38;;;4.87;100.00
35331;BME280;21441;52.190;20.910;2022-11-15T01:28:33;100447.06;;;4.74;100.00
35331;BME280;21441;52.190;20.910;2022-11-15T01:31:04;100453.56;;;4.81;100.00
35331;BME280;21441;52.190;20.910;2022-11-15T01:33:34;100456.19;;;4.81;100.00
35331;BME280;21441;52.190;20.910;2022-11-15T01:36:03;100442.59;;;4.86;100.00
35331;BME280;21441;52.190;20.910;2022-11-15T01:38:30;100444.44;;;4.95;100.00
35331;BME280;21441;52.190;20.910;2022-11-15T01:40:57;100444.13;;;4.88;100.00
35331;BME280;21441;52.190;20.910;2022-11-15T01:43:26;100449.34;;;4.79;100.00
35331;BME280;21441;52.190;20.910;2022-11-15T01:45:56;100439.53;;;4.69;100.00
35331;BME280;21441;52.190;20.910;2022-11-15T01:48:31;100441.94;;;4.72;100.00
35331;BME280;21441;52.190;20.910;2022-11-15T01:51:00;100436.38;;;4.75;100.00
35331;BME280;21441;52.190;20.910;2022-11-15T01:53:29;100436.13;;;4.79;100.00
35331;BME280;21441;52.190;20.910;2022-11-15T01:55:57;100430.84;;;4.79;100.00
35331;BME280;21441;52.190;20.910;2022-11-15T01:58:24;100432.00;;;4.86;100.00
35331;BME280;21441;52.190;20.910;2022-11-15T02:00:52;100422.72;;;4.91;100.00
35331;BME280;21441;52.190;20.910;2022-11-15T02:03:22;100413.00;;;4.92;100.00
35331;BME280;21441;52.190;20.910;2022-11-15T02:05:53;100420.22;;;4.90;100.00
35331;BME280;21441;52.190;20.910;2022-11-15T02:08:20;100408.78;;;4.89;100.00
35331;BME280;21441;52.190;20.910;2022-11-15T02:10:47;100395.94;;;4.85;100.00
35331;BME280;21441;52.190;20.910;2022-11-15T02:13:15;100407.13;;;4.88;100.00
35331;BME280;21441;52.190;20.910;2022-11-15T02:15:48;100409.44;;;4.82;100.00
35331;BME280;21441;52.190;20.910;2022-11-15T02:18:23;100394.41;;;4.82;100.00
35331;BME280;21441;52.190;20.910;2022-11-15T02:21:06;100398.47;;;4.86;100.00
35331;BME280;21441;52.190;20.910;2022-11-15T02:23:58;100405.09;;;4.81;100.00
35331;BME280;21441;52.190;20.910;2022-11-15T02:26:54;100396.41;;;4.90;100.00
35331;BME280;21441;52.190;20.910;2022-11-15T02:29:31;100401.13;;;4.86;100.00
35331;BME280;21441;52.190;20.910;2022-11-15T02:32:09;100393.78;;;4.69;100.00
35331;BME280;21441;52.190;20.910;2022-11-15T02:34:47;100401.06;;;4.77;100.00
35331;BME280;21441;52.190;20.910;2022-11-15T02:37:21;100379.41;;;4.62;100.00
35331;BME280;21441;52.190;20.910;2022-11-15T02:39:58;100376.25;;;4.68;100.00
35331;BME280;21441;52.190;20.910;2022-11-15T02:42:31;100382.88;;;4.62;100.00
35331;BME280;21441;52.190;20.910;2022-11-15T02:45:20;100383.28;;;4.58;100.00
35331;BME280;21441;52.190;20.910;2022-11-15T02:47:54;100377.28;;;4.55;100.00
35331;BME280;21441;52.190;20.910;2022-11-15T02:50:28;100384.06;;;4.48;100.00
35331;BME280;21441;52.190;20.910;2022-11-15T02:52:56;100389.13;;;4.40;100.00
35331;BME280;21441;52.190;20.910;2022-11-15T02:55:28;100373.28;;;4.40;100.00
35331;BME280;21441;52.190;20.910;2022-11-15T02:58:09;100368.00;;;4.40;100.00
35331;BME280;21441;52.190;20.910;2022-11-15T03:00:42;100362.53;;;4.53;100.00
35331;BME280;21441;52.190;20.910;2022-11-15T03:06:09;100357.13;;;4.54;100.00
35331;BME280;21441;52.190;20.910;2022-11-15T03:08:47;100344.22;;;4.40;100.00
35331;BME280;21441;52.190;20.910;2022-11-15T03:11:18;100344.22;;;4.40;100.00
35331;BME280;21441;52.190;20.910;2022-11-15T03:13:52;100343.41;;;4.40;100.00
35331;BME280;21441;52.190;20.910;2022-11-15T03:16:26;100340.88;;;4.38;100.00
35331;BME280;21441;52.190;20.910;2022-11-15T03:18:59;100340.16;;;4.36;100.00
35331;BME280;21441;52.190;20.910;2022-11-15T03:21:29;100336.47;;;4.27;100.00
35331;BME280;21441;52.190;20.910;2022-11-15T03:23:58;100338.75;;;4.32;100.00
35331;BME280;21441;52.190;20.910;2022-11-15T03:26:29;100333.53;;;4.42;100.00
35331;BME280;21441;52.190;20.910;2022-11-15T03:28:59;100331.03;;;4.40;100.00
35331;BME280;21441;52.190;20.910;2022-11-15T03:31:30;100325.84;;;4.39;100.00
35331;BME280;21441;52.190;20.910;2022-11-15T03:34:21;100321.22;;;4.31;100.00
35331;BME280;21441;52.190;20.910;2022-11-15T03:36:50;100321.06;;;4.32;100.00
35331;BME280;21441;52.190;20.910;2022-11-15T03:39:19;100320.00;;;4.35;100.00
35331;BME280;21441;52.190;20.910;2022-11-15T03:41:50;100314.72;;;4.35;100.00
35331;BME280;21441;52.190;20.910;2022-11-15T03:44:31;100304.28;;;4.33;100.00
35331;BME280;21441;52.190;20.910;2022-11-15T03:47:03;100307.13;;;4.42;100.00
35331;BME280;21441;52.190;20.910;2022-11-15T03:49:36;100303.06;;;4.38;100.00
35331;BME280;21441;52.190;20.910;2022-11-15T03:52:04;100296.09;;;4.37;100.00
35331;BME280;21441;52.190;20.910;2022-11-15T03:54:32;100301.84;;;4.42;100.00
35331;BME280;21441;52.190;20.910;2022-11-15T03:56:59;100299.31;;;4.40;100.00
35331;BME280;21441;52.190;20.910;2022-11-15T03:59:26;100298.34;;;4.41;100.00
35331;BME280;21441;52.190;20.910;2022-11-15T04:01:53;100294.75;;;4.42;100.00
35331;BME280;21441;52.190;20.910;2022-11-15T04:04:20;100295.34;;;4.46;100.00
35331;BME280;21441;52.190;20.910;2022-11-15T04:06:48;100279.59;;;4.44;100.00
35331;BME280;21441;52.190;20.910;2022-11-15T04:09:15;100282.81;;;4.48;100.00
35331;BME280;21441;52.190;20.910;2022-11-15T04:11:42;100279.59;;;4.44;100.00
35331;BME280;21441;52.190;20.910;2022-11-15T04:14:10;100282.50;;;4.41;100.00
35331;BME280;21441;52.190;20.910;2022-11-15T04:16:37;100265.06;;;4.29;100.00
35331;BME280;21441;52.190;20.910;2022-11-15T04:19:04;100280.72;;;4.42;100.00
35331;BME280;21441;52.190;20.910;2022-11-15T04:21:50;100272.91;;;4.40;100.00
35331;BME280;21441;52.190;20.910;2022-11-15T04:24:34;100270.25;;;4.40;100.00
35331;BME280;21441;52.190;20.910;2022-11-15T04:27:01;100276.38;;;4.41;100.00
35331;BME280;21441;52.190;20.910;2022-11-15T04:29:29;100266.28;;;4.46;100.00
35331;BME280;21441;52.190;20.910;2022-11-15T04:32:02;100268.25;;;4.53;100.00
35331;BME280;21441;52.190;20.910;2022-11-15T04:34:30;100269.06;;;4.54;100.00
35331;BME280;21441;52.190;20.910;2022-11-15T04:36:59;100258.59;;;4.43;100.00
35331;BME280;21441;52.190;20.910;2022-11-15T04:39:42;100271.56;;;4.46;100.00
35331;BME280;21441;52.190;20.910;2022-11-15T04:42:11;100268.91;;;4.46;100.00
35331;BME280;21441;52.190;20.910;2022-11-15T04:44:38;100262.03;;;4.33;100.00
35331;BME280;21441;52.190;20.910;2022-11-15T04:47:05;100252.41;;;4.32;100.00
35331;BME280;21441;52.190;20.910;2022-11-15T04:49:32;100268.34;;;4.42;100.00
35331;BME280;21441;52.190;20.910;2022-11-15T04:52:00;100268.91;;;4.46;100.00
35331;BME280;21441;52.190;20.910;2022-11-15T04:54:27;100263.16;;;4.41;100.00
35331;BME280;21441;52.190;20.910;2022-11-15T04:56:54;100253.81;;;4.37;100.00
35331;BME280;21441;52.190;20.910;2022-11-15T04:59:21;100251.16;;;4.27;100.00
35331;BME280;21441;52.190;20.910;2022-11-15T05:01:48;100252.41;;;4.32;100.00
35331;BME280;21441;52.190;20.910;2022-11-15T05:04:16;100255.13;;;4.42;100.00
35331;BME280;21441;52.190;20.910;2022-11-15T05:06:45;100255.41;;;4.39;100.00
35331;BME280;21441;52.190;20.910;2022-11-15T05:09:14;100253.00;;;4.36;100.00
35331;BME280;21441;52.190;20.910;2022-11-15T05:11:41;100249.84;;;4.42;100.00
35331;BME280;21441;52.190;20.910;2022-11-15T05:14:08;100260.28;;;4.44;100.00
35331;BME280;21441;52.190;20.910;2022-11-15T05:16:35;100254.72;;;4.47;100.00
35331;BME280;21441;52.190;20.910;2022-11-15T05:19:03;100252.66;;;4.50;100.00
35331;BME280;21441;52.190;20.910;2022-11-15T05:21:31;100251.81;;;4.50;100.00
35331;BME280;21441;52.190;20.910;2022-11-15T05:23:58;100245.91;;;4.37;100.00
35331;BME280;21441;52.190;20.910;2022-11-15T05:26:28;100252.03;;;4.37;100.00
35331;BME280;21441;52.190;20.910;2022-11-15T05:28:57;100242.72;;;4.33;100.00
35331;BME280;21441;52.190;20.910;2022-11-15T05:31:24;100243.41;;;4.35;100.00
35331;BME280;21441;52.190;20.910;2022-11-15T05:33:53;100245.47;;;4.31;100.00
35331;BME280;21441;52.190;20.910;2022-11-15T05:36:26;100248.06;;;4.22;100.00
35331;BME280;21441;52.190;20.910;2022-11-15T05:38:54;100242.72;;;4.33;100.00
35331;BME280;21441;52.190;20.910;2022-11-15T05:41:28;100239.88;;;4.25;100.00
35331;BME280;21441;52.190;20.910;2022-11-15T05:43:58;100239.59;;;4.28;100.00
35331;BME280;21441;52.190;20.910;2022-11-15T05:46:26;100243.03;;;4.19;100.00
35331;BME280;21441;52.190;20.910;2022-11-15T05:48:55;100235.22;;;4.17;100.00
35331;BME280;21441;52.190;20.910;2022-11-15T05:51:23;100232.41;;;4.09;100.00
35331;BME280;21441;52.190;20.910;2022-11-15T05:53:51;100232.59;;;3.96;100.00
35331;BME280;21441;52.190;20.910;2022-11-15T05:56:19;100225.63;;;3.95;100.00
35331;BME280;21441;52.190;20.910;2022-11-15T05:58:48;100224.56;;;3.98;100.00
35331;BME280;21441;52.190;20.910;2022-11-15T06:01:15;100227.06;;;3.99;100.00
35331;BME280;21441;52.190;20.910;2022-11-15T06:03:42;100227.66;;;4.03;100.00
35331;BME280;21441;52.190;20.910;2022-11-15T06:06:09;100235.44;;;4.04;100.00
35331;BME280;21441;52.190;20.910;2022-11-15T06:08:36;100239.75;;;4.05;100.00
35331;BME280;21441;52.190;20.910;2022-11-15T06:11:04;100234.88;;;4.01;100.00
35331;BME280;21441;52.190;20.910;2022-11-15T06:13:31;100231.63;;;3.97;100.00
35331;BME280;21441;52.190;20.910;2022-11-15T06:16:00;100238.66;;;4.08;100.00
35331;BME280;21441;52.190;20.910;2022-11-15T06:18:27;100237.50;;;4.01;100.00
35331;BME280;21441;52.190;20.910;2022-11-15T06:20:58;100233.19;;;4.00;100.00
35331;BME280;21441;52.190;20.910;2022-11-15T06:23:26;100233.94;;;3.90;100.00
35331;BME280;21441;52.190;20.910;2022-11-15T06:25:53;100230.09;;;3.95;100.00
35331;BME280;21441;52.190;20.910;2022-11-15T06:28:20;100237.63;;;3.99;100.00
35331;BME280;21441;52.190;20.910;2022-11-15T06:30:47;100233.75;;;4.03;100.00
35331;BME280;21441;52.190;20.910;2022-11-15T06:33:16;100241.81;;;4.02;100.00
35331;BME280;21441;52.190;20.910;2022-11-15T06:35:43;100235.56;;;4.03;100.00
35331;BME280;21441;52.190;20.910;2022-11-15T06:38:10;100249.06;;;3.88;100.00
35331;BME280;21441;52.190;20.910;2022-11-15T06:40:38;100257.97;;;3.87;100.00
35331;BME280;21441;52.190;20.910;2022-11-15T06:43:06;100249.47;;;3.84;100.00
35331;BME280;21441;52.190;20.910;2022-11-15T06:45:33;100255.44;;;3.86;100.00
35331;BME280;21441;52.190;20.910;2022-11-15T06:48:00;100235.09;;;3.77;100.00
35331;BME280;21441;52.190;20.910;2022-11-15T06:50:29;100238.00;;;3.74;100.00
35331;BME280;21441;52.190;20.910;2022-11-15T06:53:00;100245.16;;;3.83;100.00
35331;BME280;21441;52.190;20.910;2022-11-15T06:55:27;100245.34;;;3.70;100.00
35331;BME280;21441;52.190;20.910;2022-11-15T06:57:55;100244.94;;;3.75;100.00
35331;BME280;21441;52.190;20.910;2022-11-15T07:00:22;100251.09;;;3.96;100.00
35331;BME280;21441;52.190;20.910;2022-11-15T07:02:49;100245.31;;;4.02;100.00
35331;BME280;21441;52.190;20.910;2022-11-15T07:05:16;100244.00;;;3.97;100.00
35331;BME280;21441;52.190;20.910;2022-11-15T07:07:50;100240.13;;;4.01;100.00
35331;BME280;21441;52.190;20.910;2022-11-15T07:10:17;100257.91;;;4.20;100.00
35331;BME280;21441;52.190;20.910;2022-11-15T07:12:47;100249.13;;;4.19;100.00
35331;BME280;21441;52.190;20.910;2022-11-15T07:15:14;100244.00;;;3.97;100.00
35331;BME280;21441;52.190;20.910;2022-11-15T07:17:41;100251.41;;;4.03;100.00
35331;BME280;21441;52.190;20.910;2022-11-15T07:20:09;100248.19;;;3.99;100.00
35331;BME280;21441;52.190;20.910;2022-11-15T07:22:36;100251.66;;;4.21;100.00
35331;BME280;21441;52.190;20.910;2022-11-15T07:25:05;100250.16;;;4.28;100.00
35331;BME280;21441;52.190;20.910;2022-11-15T07:27:32;100248.44;;;4.17;100.00
35331;BME280;21441;52.190;20.910;2022-11-15T07:30:00;100250.50;;;4.13;100.00
35331;BME280;21441;52.190;20.910;2022-11-15T07:32:27;100248.00;;;4.12;100.00
35331;BME280;21441;52.190;20.910;2022-11-15T07:34:54;100246.78;;;4.16;100.00
35331;BME280;21441;52.190;20.910;2022-11-15T07:37:21;100254.28;;;4.21;100.00
35331;BME280;21441;52.190;20.910;2022-11-15T07:40:05;100257.34;;;4.16;100.00
35331;BME280;21441;52.190;20.910;2022-11-15T07:42:51;100246.38;;;4.21;100.00
35331;BME280;21441;52.190;20.910;2022-11-15T07:45:22;100243.53;;;4.12;100.00
35331;BME280;21441;52.190;20.910;2022-11-15T07:47:52;100240.38;;;4.19;100.00
35331;BME280;21441;52.190;20.910;2022-11-15T07:50:19;100232.94;;;4.24;100.00
35331;BME280;21441;52.190;20.910;2022-11-15T07:52:46;100237.81;;;4.28;100.00
35331;BME280;21441;52.190;20.910;2022-11-15T07:55:14;100227.25;;;4.28;100.00
35331;BME280;21441;52.190;20.910;2022-11-15T07:57:41;100222.41;;;4.33;100.00
35331;BME280;21441;52.190;20.910;2022-11-15T08:00:11;100231.56;;;4.29;100.00
35331;BME280;21441;52.190;20.910;2022-11-15T08:02:38;100222.53;;;4.32;100.00
35331;BME280;21441;52.190;20.910;2022-11-15T08:05:11;100215.31;;;4.34;100.00
35331;BME280;21441;52.190;20.910;2022-11-15T08:07:44;100217.44;;;4.19;100.00
35331;BME280;21441;52.190;20.910;2022-11-15T08:10:11;100205.97;;;4.30;100.00
35331;BME280;21441;52.190;20.910;2022-11-15T08:12:39;100206.78;;;4.51;100.00
35331;BME280;21441;52.190;20.910;2022-11-15T08:15:07;100191.53;;;4.34;100.00
35331;BME280;21441;52.190;20.910;2022-11-15T08:17:35;100198.25;;;4.38;100.00
35331;BME280;21441;52.190;20.910;2022-11-15T08:20:02;100202.91;;;4.55;100.00
35331;BME280;21441;52.190;20.910;2022-11-15T08:22:30;100203.22;;;4.72;100.00
35331;BME280;21441;52.190;20.910;2022-11-15T08:24:57;100198.91;;;4.71;100.00
35331;BME280;21441;52.190;20.910;2022-11-15T08:27:25;100193.91;;;4.68;100.00
35331;BME280;21441;52.190;20.910;2022-11-15T08:29:52;100193.31;;;4.54;100.00
35331;BME280;21441;52.190;20.910;2022-11-15T08:32:19;100190.91;;;4.51;100.00
35331;BME280;21441;52.190;20.910;2022-11-15T08:34:47;100193.69;;;4.50;100.00
35331;BME280;21441;52.190;20.910;2022-11-15T08:37:14;100185.47;;;4.43;100.00
35331;BME280;21441;52.190;20.910;2022-11-15T08:39:41;100190.19;;;4.40;100.00
35331;BME280;21441;52.190;20.910;2022-11-15T08:42:09;100187.88;;;4.56;100.00
35331;BME280;21441;52.190;20.910;2022-11-15T08:44:35;100190.22;;;4.49;100.00
35331;BME280;21441;52.190;20.910;2022-11-15T08:47:03;100187.47;;;4.61;100.00
35331;BME280;21441;52.190;20.910;2022-11-15T08:49:30;100188.19;;;4.63;100.00
35331;BME280;21441;52.190;20.910;2022-11-15T08:51:59;100185.22;;;4.56;100.00
35331;BME280;21441;52.190;20.910;2022-11-15T08:54:26;100194.47;;;4.71;100.00
35331;BME280;21441;52.190;20.910;2022-11-15T08:56:53;100189.66;;;4.96;100.00
35331;BME280;21441;52.190;20.910;2022-11-15T08:59:20;100177.28;;;4.96;100.00
35331;BME280;21441;52.190;20.910;2022-11-15T09:01:47;100184.53;;;4.94;100.00
35331;BME280;21441;52.190;20.910;2022-11-15T09:04:14;100183.66;;;4.84;100.00
35331;BME280;21441;52.190;20.910;2022-11-15T09:06:42;100178.19;;;4.76;100.00
35331;BME280;21441;52.190;20.910;2022-11-15T09:09:10;100169.72;;;4.82;100.00
35331;BME280;21441;52.190;20.910;2022-11-15T09:11:40;100172.13;;;4.85;100.00
35331;BME280;21441;52.190;20.910;2022-11-15T09:14:07;100171.56;;;4.82;100.00
35331;BME280;21441;52.190;20.910;2022-11-15T09:16:34;100165.16;;;4.84;100.00
35331;BME280;21441;52.190;20.910;2022-11-15T09:19:01;100166.53;;;4.79;100.00
35331;BME280;21441;52.190;20.910;2022-11-15T09:21:29;100155.56;;;4.93;100.00
35331;BME280;21441;52.190;20.910;2022-11-15T09:23:56;100153.34;;;4.88;100.00
35331;BME280;21441;52.190;20.910;2022-11-15T09:26:25;100149.59;;;4.91;100.00
35331;BME280;21441;52.190;20.910;2022-11-15T09:28:52;100164.19;;;4.85;100.00
35331;BME280;21441;52.190;20.910;2022-11-15T09:31:19;100150.69;;;4.88;100.00
35331;BME280;21441;52.190;20.910;2022-11-15T09:33:46;100155.16;;;4.88;100.00
35331;BME280;21441;52.190;20.910;2022-11-15T09:36:13;100147.50;;;4.94;100.00
35331;BME280;21441;52.190;20.910;2022-11-15T09:38:40;100142.06;;;4.96;100.00
35331;BME280;21441;52.190;20.910;2022-11-15T09:41:37;100147.78;;;4.91;100.00
35331;BME280;21441;52.190;20.910;2022-11-15T09:44:16;100150.28;;;4.93;100.00
35331;BME280;21441;52.190;20.910;2022-11-15T09:46:54;100128.72;;;4.88;100.00
35331;BME280;21441;52.190;20.910;2022-11-15T09:49:23;100139.72;;;4.93;100.00
35331;BME280;21441;52.190;20.910;2022-11-15T09:51:53;100134.97;;;4.87;100.00
35331;BME280;21441;52.190;20.910;2022-11-15T09:54:26;100132.88;;;4.90;100.00
35331;BME280;21441;52.190;20.910;2022-11-15T09:57:04;100126.78;;;4.90;100.00
35331;BME280;21441;52.190;20.910;2022-11-15T09:59:55;100105.34;;;5.12;100.00
35331;BME280;21441;52.190;20.910;2022-11-15T10:02:42;100099.91;;;5.04;100.00
35331;BME280;21441;52.190;20.910;2022-11-15T10:05:16;100111.06;;;5.08;100.00
35331;BME280;21441;52.190;20.910;2022-11-15T10:07:50;100107.00;;;5.13;100.00
35331;BME280;21441;52.190;20.910;2022-11-15T10:10:27;100105.06;;;5.15;100.00
35331;BME280;21441;52.190;20.910;2022-11-15T10:12:58;100105.78;;;5.08;100.00
35331;BME280;21441;52.190;20.910;2022-11-15T10:15:26;100100.88;;;5.32;100.00
35331;BME280;21441;52.190;20.910;2022-11-15T10:18:07;100088.50;;;5.33;100.00
35331;BME280;21441;52.190;20.910;2022-11-15T10:20:44;100093.66;;;5.34;100.00
35331;BME280;21441;52.190;20.910;2022-11-15T10:23:15;100085.44;;;5.28;100.00
35331;BME280;21441;52.190;20.910;2022-11-15T10:25:43;100092.38;;;5.48;100.00
35331;BME280;21441;52.190;20.910;2022-11-15T10:28:15;100096.44;;;5.43;100.00
35331;BME280;21441;52.190;20.910;2022-11-15T10:30:44;100097.78;;;5.56;100.00
35331;BME280;21441;52.190;20.910;2022-11-15T10:33:19;100089.16;;;5.54;100.00
35331;BME280;21441;52.190;20.910;2022-11-15T10:35:51;100090.69;;;5.67;100.00
35331;BME280;21441;52.190;20.910;2022-11-15T10:38:52;100083.78;;;5.84;100.00
35331;BME280;21441;52.190;20.910;2022-11-15T10:41:21;100076.38;;;5.97;100.00
35331;BME280;21441;52.190;20.910;2022-11-15T10:44:08;100080.09;;;6.14;100.00
35331;BME280;21441;52.190;20.910;2022-11-15T10:46:38;100072.63;;;5.90;100.00
35331;BME280;21441;52.190;20.910;2022-11-15T10:49:13;100081.41;;;6.00;100.00
35331;BME280;21441;52.190;20.910;2022-11-15T10:51:44;100075.66;;;6.05;100.00
35331;BME280;21441;52.190;20.910;2022-11-15T10:54:12;100062.03;;;6.27;100.00
35331;BME280;21441;52.190;20.910;2022-11-15T10:56:40;100067.28;;;6.09;100.00
35331;BME280;21441;52.190;20.910;2022-11-15T10:59:20;100062.94;;;6.18;100.00
35331;BME280;21441;52.190;20.910;2022-11-15T11:01:50;100069.50;;;6.42;100.00
35331;BME280;21441;52.190;20.910;2022-11-15T11:04:17;100065.13;;;6.50;100.00
35331;BME280;21441;52.190;20.910;2022-11-15T11:06:49;100054.53;;;6.50;100.00
35331;BME280;21441;52.190;20.910;2022-11-15T11:09:27;100059.66;;;6.52;100.00
35331;BME280;21441;52.190;20.910;2022-11-15T11:11:55;100058.38;;;6.56;100.00
35331;BME280;21441;52.190;20.910;2022-11-15T11:14:26;100062.69;;;6.39;100.00
35331;BME280;21441;52.190;20.910;2022-11-15T11:17:02;100056.44;;;6.03;100.00
35331;BME280;21441;52.190;20.910;2022-11-15T11:22:23;100051.69;;;6.34;100.00
35331;BME280;21441;52.190;20.910;2022-11-15T11:25:03;100049.56;;;6.37;100.00
35331;BME280;21441;52.190;20.910;2022-11-15T11:27:39;100048.53;;;6.48;100.00
35331;BME280;21441;52.190;20.910;2022-11-15T11:30:14;100041.97;;;6.52;100.00
35331;BME280;21441;52.190;20.910;2022-11-15T11:33:13;100038.06;;;6.47;100.00
35331;BME280;21441;52.190;20.910;2022-11-15T11:35:50;100036.94;;;6.49;100.00
35331;BME280;21441;52.190;20.910;2022-11-15T11:38:34;100030.25;;;6.45;100.00
35331;BME280;21441;52.190;20.910;2022-11-15T11:41:10;100024.72;;;6.38;100.00
35331;BME280;21441;52.190;20.910;2022-11-15T11:43:49;100020.06;;;6.50;100.00
35331;BME280;21441;52.190;20.910;2022-11-15T11:46:32;100017.47;;;6.58;100.00
35331;BME280;21441;52.190;20.910;2022-11-15T11:49:08;100023.47;;;6.60;100.00
35331;BME280;21441;52.190;20.910;2022-11-15T11:51:40;100013.84;;;6.77;100.00
35331;BME280;21441;52.190;20.910;2022-11-15T11:54:12;100009.16;;;6.71;100.00
35331;BME280;21441;52.190;20.910;2022-11-15T11:56:43;100000.59;;;6.77;100.00
35331;BME280;21441;52.190;20.910;2022-11-15T11:59:17;100006.22;;;6.74;100.00
35331;BME280;21441;52.190;20.910;2022-11-15T12:01:47;100003.47;;;6.84;100.00
35331;BME280;21441;52.190;20.910;2022-11-15T12:04:19;99999.41;;;6.90;100.00
35331;BME280;21441;52.190;20.910;2022-11-15T12:06:52;99999.22;;;6.91;100.00
35331;BME280;21441;52.190;20.910;2022-11-15T12:09:30;100004.69;;;6.90;100.00
35331;BME280;21441;52.190;20.910;2022-11-15T12:12:05;100000.78;;;7.02;100.00
35331;BME280;21441;52.190;20.910;2022-11-15T12:14:39;100000.19;;;7.08;100.00
35331;BME280;21441;52.190;20.910;2022-11-15T12:17:11;99993.44;;;7.14;100.00
35331;BME280;21441;52.190;20.910;2022-11-15T12:19:39;99995.53;;;7.28;100.00
35331;BME280;21441;52.190;20.910;2022-11-15T12:22:12;99971.16;;;7.07;100.00
35331;BME280;21441;52.190;20.910;2022-11-15T12:24:45;99985.19;;;6.99;100.00
35331;BME280;21441;52.190;20.910;2022-11-15T12:27:16;99987.19;;;6.97;100.00
35331;BME280;21441;52.190;20.910;2022-11-15T12:29:47;99987.78;;;6.91;100.00
35331;BME280;21441;52.190;20.910;2022-11-15T12:32:28;99983.47;;;6.90;100.00
35331;BME280;21441;52.190;20.910;2022-11-15T12:34:57;99981.66;;;6.90;100.00
35331;BME280;21441;52.190;20.910;2022-11-15T12:37:52;99972.91;;;6.98;100.00
35331;BME280;21441;52.190;20.910;2022-11-15T12:40:24;99981.03;;;6.96;100.00
35331;BME280;21441;52.190;20.910;2022-11-15T12:45:52;99961.41;;;7.07;100.00
35331;BME280;21441;52.190;20.910;2022-11-15T12:48:49;99964.38;;;6.86;100.00
35331;BME280;21441;52.190;20.910;2022-11-15T12:51:19;99959.63;;;6.90;100.00
35331;BME280;21441;52.190;20.910;2022-11-15T12:53:47;99956.25;;;7.06;100.00
35331;BME280;21441;52.190;20.910;2022-11-15T12:56:21;99957.06;;;7.06;100.00
35331;BME280;21441;52.190;20.910;2022-11-15T12:58:55;99958.53;;;6.82;100.00
35331;BME280;21441;52.190;20.910;2022-11-15T13:01:56;99964.13;;;6.97;100.00
35331;BME280;21441;52.190;20.910;2022-11-15T13:04:28;99972.00;;;6.89;100.00
35331;BME280;21441;52.190;20.910;2022-11-15T13:06:58;99967.81;;;7.05;100.00
35331;BME280;21441;52.190;20.910;2022-11-15T13:09:58;99962.09;;;7.09;100.00